Terminal Aerodrome Forecast
Issued by NWS Norman, OK

Current Version | Previous Version | Text Only | Print | Product List | Glossary Off
Versions: 1 2 3 4 5 6 7 8 9 10 11 12 13 14 15 16

705
FTUS44 KOUN 191326 AAA
TAFOKC
TAF AMD
KOKC 191326Z 1913/2012 07014G20KT P6SM OVC012
     FM191700 07010KT P6SM VCSH OVC008
     FM192000 08013KT 5SM TSRA BR OVC010CB
     FM200600 12009KT P6SM OVC015
      TEMPO 2006/2009 -TSRA BKN015CB=

USA.gov is the U.S. government's official web portal to all federal, state and local government web resources and services.